createdAt,value
2019-05-11T00:00:38.072Z,94.20
2019-05-11T00:01:42.482Z,94.20
2019-05-11T00:02:46.921Z,94.20
2019-05-11T00:03:51.398Z,94.20
2019-05-11T00:04:55.835Z,94.20
2019-05-11T00:06:00.212Z,94.30
2019-05-11T00:07:04.770Z,94.30
2019-05-11T00:08:09.170Z,94.30
2019-05-11T00:09:13.571Z,94.30
2019-05-11T00:10:17.972Z,94.40
2019-05-11T00:11:22.385Z,94.40
2019-05-11T00:12:26.824Z,94.40
2019-05-11T00:13:31.222Z,94.50
2019-05-11T00:14:35.629Z,94.60
2019-05-11T00:15:40.015Z,94.80
2019-05-11T00:16:44.433Z,94.60
2019-05-11T00:17:48.892Z,94.60
2019-05-11T00:18:53.282Z,94.60
2019-05-11T00:19:57.647Z,94.60
2019-05-11T00:21:02.060Z,94.60
2019-05-11T00:22:06.449Z,94.60
2019-05-11T00:23:10.907Z,94.50
2019-05-11T00:24:15.328Z,94.40
2019-05-11T00:25:19.727Z,94.40
2019-05-11T00:26:24.132Z,94.60
2019-05-11T00:27:28.595Z,94.40
2019-05-11T00:28:32.996Z,94.50
2019-05-11T00:29:37.408Z,94.50
2019-05-11T00:30:45.060Z,94.80
2019-05-11T00:31:49.504Z,94.60
2019-05-11T00:32:53.982Z,94.80
2019-05-11T00:33:58.423Z,94.60
2019-05-11T00:35:02.826Z,94.60
2019-05-11T00:36:07.228Z,94.60
2019-05-11T00:37:11.669Z,94.60
2019-05-11T00:38:16.113Z,94.60
2019-05-11T00:39:20.527Z,94.50
2019-05-11T00:40:24.962Z,94.50
2019-05-11T00:41:29.425Z,94.50
2019-05-11T00:42:33.828Z,94.50
2019-05-11T00:43:38.294Z,94.60
2019-05-11T00:44:42.696Z,94.60
2019-05-11T00:45:47.090Z,94.60
2019-05-11T00:46:51.496Z,94.60
2019-05-11T00:47:55.943Z,94.60
2019-05-11T00:49:00.362Z,94.60
2019-05-11T00:50:04.779Z,94.60
2019-05-11T00:51:09.204Z,94.60
2019-05-11T00:52:13.608Z,94.60
2019-05-11T00:53:18.056Z,94.70
2019-05-11T00:54:22.447Z,94.70
2019-05-11T00:55:26.853Z,94.70
2019-05-11T00:56:31.301Z,94.70
2019-05-11T00:57:35.682Z,94.70
2019-05-11T00:58:40.038Z,94.70
2019-05-11T00:59:44.449Z,94.80
2019-05-11T01:00:48.910Z,94.70
2019-05-11T01:01:53.306Z,94.70
2019-05-11T01:02:57.695Z,94.70
2019-05-11T01:04:02.143Z,94.70
2019-05-11T01:05:06.705Z,94.70
2019-05-11T01:06:11.191Z,95.00
2019-05-11T01:07:15.596Z,94.70
2019-05-11T01:08:20.128Z,94.70
2019-05-11T01:09:24.535Z,94.80
2019-05-11T01:10:41.083Z,95.00
2019-05-11T01:11:35.027Z,94.80
2019-05-11T01:12:39.442Z,94.80
2019-05-11T01:13:43.929Z,94.80
2019-05-11T01:14:48.413Z,94.70
2019-05-11T01:15:52.941Z,94.70
2019-05-11T01:16:57.347Z,94.80
2019-05-11T01:18:01.768Z,94.80
2019-05-11T01:19:06.231Z,94.80
2019-05-11T01:20:10.628Z,94.80
2019-05-11T01:21:15.046Z,94.80
2019-05-11T01:22:19.431Z,94.90
2019-05-11T01:23:23.830Z,94.90
2019-05-11T01:24:28.218Z,94.90
2019-05-11T01:25:32.720Z,94.90
2019-05-11T01:26:37.128Z,94.90
2019-05-11T01:27:41.539Z,95.20
2019-05-11T01:28:45.971Z,95.00
2019-05-11T01:29:50.412Z,94.90
2019-05-11T01:30:54.821Z,94.90
2019-05-11T01:31:59.290Z,94.80
2019-05-11T01:33:03.690Z,94.80
2019-05-11T01:34:08.135Z,94.80
2019-05-11T01:35:14.027Z,94.80
2019-05-11T01:36:18.555Z,94.80
2019-05-11T01:37:22.938Z,94.80
2019-05-11T01:38:27.347Z,94.80
2019-05-11T01:39:31.806Z,94.90
2019-05-11T01:40:36.219Z,94.80
2019-05-11T01:41:40.623Z,94.80
2019-05-11T01:42:45.030Z,94.70
2019-05-11T01:43:49.423Z,94.70
2019-05-11T01:44:53.868Z,94.70
2019-05-11T01:45:58.275Z,94.80
2019-05-11T01:47:02.688Z,94.80
2019-05-11T01:48:07.103Z,94.80
2019-05-11T01:49:11.544Z,94.80
2019-05-11T01:50:15.952Z,94.90
2019-05-11T01:51:20.373Z,94.90
2019-05-11T01:52:24.766Z,95.00
2019-05-11T01:53:29.170Z,95.30
2019-05-11T01:54:33.523Z,95.00
2019-05-11T01:55:37.923Z,95.10
2019-05-11T01:56:42.335Z,95.10
2019-05-11T01:57:46.738Z,95.10
2019-05-11T01:58:51.071Z,95.10
2019-05-11T01:59:55.515Z,95.10
2019-05-11T02:00:59.913Z,95.10
2019-05-11T02:02:04.322Z,95.10
2019-05-11T02:03:08.731Z,95.10
2019-05-11T02:04:13.140Z,95.10
2019-05-11T02:05:30.261Z,95.10
2019-05-11T02:06:34.650Z,95.00
2019-05-11T02:07:39.059Z,95.10
2019-05-11T02:08:43.478Z,95.10
2019-05-11T02:09:47.906Z,95.00
2019-05-11T02:10:52.331Z,95.10
2019-05-11T02:11:56.730Z,95.30
2019-05-11T02:13:01.184Z,95.00
2019-05-11T02:14:05.592Z,95.10
2019-05-11T02:15:10.030Z,95.20
2019-05-11T02:16:14.435Z,95.20
2019-05-11T02:17:18.853Z,95.10
2019-05-11T02:18:23.295Z,95.20
2019-05-11T02:19:27.732Z,95.20
2019-05-11T02:20:32.138Z,95.10
2019-05-11T02:21:36.535Z,95.10
2019-05-11T02:22:40.940Z,95.10
2019-05-11T02:23:45.358Z,95.40
2019-05-11T02:24:49.788Z,95.10
2019-05-11T02:25:54.195Z,95.20
2019-05-11T02:26:58.594Z,95.20
2019-05-11T02:28:03.018Z,95.50
2019-05-11T02:29:07.411Z,95.20
2019-05-11T02:30:11.854Z,95.20
2019-05-11T02:31:16.279Z,95.20
2019-05-11T02:32:20.688Z,95.20
2019-05-11T02:33:25.087Z,95.20
2019-05-11T02:34:29.491Z,95.20
2019-05-11T02:35:33.926Z,95.20
2019-05-11T02:36:38.337Z,95.30
2019-05-11T02:37:42.733Z,95.10
2019-05-11T02:38:47.197Z,95.10
2019-05-11T02:39:51.601Z,95.00
2019-05-11T02:40:56.044Z,95.10
2019-05-11T02:42:00.439Z,95.20
2019-05-11T02:43:04.859Z,95.00
2019-05-11T02:44:09.421Z,95.00
2019-05-11T02:45:13.869Z,94.90
2019-05-11T02:46:18.264Z,94.90
2019-05-11T02:47:22.669Z,94.90
2019-05-11T02:48:27.064Z,94.90
2019-05-11T02:49:31.479Z,94.80
2019-05-11T02:50:36.403Z,94.90
2019-05-11T02:51:40.923Z,94.90
2019-05-11T02:52:45.341Z,94.90
2019-05-11T02:53:50.064Z,94.90
2019-05-11T02:54:54.577Z,94.90
2019-05-11T02:55:59.017Z,94.80
2019-05-11T02:57:03.410Z,94.80
2019-05-11T02:58:08.023Z,94.80
2019-05-11T02:59:12.416Z,94.80
2019-05-11T03:00:20.924Z,94.80
2019-05-11T03:01:25.397Z,94.80
2019-05-11T03:02:29.819Z,94.80
2019-05-11T03:03:34.227Z,94.70
2019-05-11T03:04:38.616Z,94.70
2019-05-11T03:05:43.067Z,94.70
2019-05-11T03:06:47.591Z,94.60
2019-05-11T03:07:52.030Z,94.60
2019-05-11T03:08:56.436Z,94.50
2019-05-11T03:10:00.838Z,94.60
2019-05-11T03:11:05.200Z,94.60
2019-05-11T03:12:09.611Z,94.60
2019-05-11T03:13:14.023Z,94.60
2019-05-11T03:14:18.422Z,94.60
2019-05-11T03:15:22.823Z,94.60
2019-05-11T03:16:27.246Z,94.50
2019-05-11T03:17:33.428Z,94.40
2019-05-11T03:18:37.835Z,94.70
2019-05-11T03:19:42.242Z,94.40
2019-05-11T03:20:46.684Z,94.40
2019-05-11T03:21:51.095Z,94.30
2019-05-11T03:22:55.516Z,94.30
2019-05-11T03:23:59.914Z,94.30
2019-05-11T03:25:04.323Z,94.20
2019-05-11T03:26:08.760Z,94.30
2019-05-11T03:27:13.159Z,94.20
2019-05-11T03:28:17.573Z,94.10
2019-05-11T03:29:21.969Z,94.20
2019-05-11T03:30:26.376Z,94.00
2019-05-11T03:31:30.855Z,94.10
2019-05-11T03:32:35.267Z,94.10
2019-05-11T03:33:39.671Z,94.10
2019-05-11T03:34:44.060Z,94.10
2019-05-11T03:35:48.541Z,93.90
2019-05-11T03:36:52.960Z,93.70
2019-05-11T03:37:57.439Z,93.70
2019-05-11T03:39:01.953Z,93.70
2019-05-11T03:40:06.589Z,93.70
2019-05-11T03:41:11.042Z,93.80
2019-05-11T03:42:15.613Z,93.80
2019-05-11T03:43:20.156Z,93.70
2019-05-11T03:44:24.548Z,93.70
2019-05-11T03:45:29.065Z,93.80
2019-05-11T03:46:33.507Z,93.70
2019-05-11T03:47:37.938Z,93.60
2019-05-11T03:48:42.303Z,93.60
2019-05-11T03:49:46.704Z,93.60
2019-05-11T03:50:51.103Z,93.50
2019-05-11T03:51:55.536Z,93.50
2019-05-11T03:52:59.936Z,93.50
2019-05-11T03:54:04.382Z,93.60
2019-05-11T03:55:08.796Z,93.50
2019-05-11T03:56:13.340Z,93.40
2019-05-11T03:57:17.781Z,93.30
2019-05-11T03:58:25.887Z,93.20
2019-05-11T03:59:28.276Z,93.20
2019-05-11T04:00:32.683Z,93.30
2019-05-11T04:01:37.109Z,93.30
2019-05-11T04:02:41.520Z,93.10
2019-05-11T04:03:45.942Z,93.20
2019-05-11T04:04:50.356Z,93.10
2019-05-11T04:05:54.758Z,93.10
2019-05-11T04:06:59.197Z,93.20
2019-05-11T04:08:03.609Z,93.00
2019-05-11T04:09:08.018Z,93.00
2019-05-11T04:10:12.524Z,92.90
2019-05-11T04:11:16.918Z,93.00
2019-05-11T04:12:34.386Z,93.10
2019-05-11T04:13:27.408Z,93.00
2019-05-11T04:14:31.803Z,93.00
2019-05-11T04:15:36.197Z,93.10
2019-05-11T04:16:40.592Z,92.90
2019-05-11T04:17:45.104Z,93.00
2019-05-11T04:18:49.491Z,93.10
2019-05-11T04:19:53.906Z,93.10
2019-05-11T04:20:58.305Z,93.10
2019-05-11T04:22:02.740Z,92.70
2019-05-11T04:23:07.175Z,92.90
2019-05-11T04:24:11.565Z,92.90
2019-05-11T04:25:15.960Z,92.80
2019-05-11T04:26:20.368Z,92.70
2019-05-11T04:27:24.792Z,92.80
2019-05-11T04:28:29.191Z,92.70
2019-05-11T04:29:33.642Z,92.70
2019-05-11T04:30:38.045Z,92.80
2019-05-11T04:31:42.520Z,92.80
2019-05-11T04:32:46.964Z,92.80
2019-05-11T04:33:51.371Z,92.70
2019-05-11T04:34:55.783Z,92.70
2019-05-11T04:36:00.197Z,92.70
2019-05-11T04:37:04.600Z,92.60
2019-05-11T04:38:09.030Z,92.50
2019-05-11T04:39:13.427Z,92.60
2019-05-11T04:40:17.839Z,92.40
2019-05-11T04:41:22.241Z,92.50
2019-05-11T04:42:26.783Z,92.20
2019-05-11T04:43:31.193Z,92.20
2019-05-11T04:44:38.450Z,92.20
2019-05-11T04:45:42.857Z,92.30
2019-05-11T04:46:47.266Z,92.50
2019-05-11T04:47:51.719Z,92.30
2019-05-11T04:48:56.091Z,92.30
2019-05-11T04:50:00.509Z,92.10
2019-05-11T04:51:04.895Z,92.40
2019-05-11T04:52:09.294Z,91.90
2019-05-11T04:53:13.714Z,92.00
2019-05-11T04:54:18.126Z,92.00
2019-05-11T04:55:22.525Z,92.20
2019-05-11T04:56:26.919Z,92.10
2019-05-11T04:57:31.356Z,92.10
2019-05-11T04:58:35.754Z,92.00
2019-05-11T04:59:40.148Z,92.10
2019-05-11T05:00:44.572Z,92.10
2019-05-11T05:01:48.955Z,92.10
2019-05-11T05:02:53.382Z,92.10
2019-05-11T05:04:12.244Z,92.00
2019-05-11T05:05:03.979Z,92.00
2019-05-11T05:06:22.070Z,91.90
2019-05-11T05:07:16.574Z,91.90
2019-05-11T05:08:21.171Z,91.80
2019-05-11T05:09:26.811Z,91.80
2019-05-11T05:10:31.474Z,91.80
2019-05-11T05:11:36.819Z,91.70
2019-05-11T05:12:50.777Z,91.80
2019-05-11T05:13:47.999Z,91.80
2019-05-11T05:14:52.395Z,91.80
2019-05-11T05:15:56.798Z,91.70
2019-05-11T05:17:01.185Z,91.70
2019-05-11T05:18:05.626Z,91.60
2019-05-11T05:19:10.027Z,91.70
2019-05-11T05:20:14.418Z,91.70
2019-05-11T05:21:18.813Z,91.80
2019-05-11T05:22:23.221Z,91.70
2019-05-11T05:23:27.670Z,91.70
2019-05-11T05:24:32.065Z,91.70
2019-05-11T05:25:36.470Z,91.50
2019-05-11T05:26:40.876Z,91.60
2019-05-11T05:27:45.292Z,91.50
2019-05-11T05:28:49.717Z,91.40
2019-05-11T05:29:54.106Z,91.40
2019-05-11T05:30:58.544Z,91.30
2019-05-11T05:32:02.961Z,91.40
2019-05-11T05:33:07.396Z,91.20
2019-05-11T05:34:11.788Z,91.30
2019-05-11T05:35:16.222Z,91.20
2019-05-11T05:36:20.627Z,91.30
2019-05-11T05:37:25.151Z,91.10
2019-05-11T05:38:29.698Z,91.10
2019-05-11T05:39:34.145Z,91.10
2019-05-11T05:40:38.557Z,91.10
2019-05-11T05:41:42.976Z,90.90
2019-05-11T05:42:47.377Z,90.80
2019-05-11T05:43:51.845Z,90.80
2019-05-11T05:44:56.255Z,90.80
2019-05-11T05:46:00.658Z,90.80
2019-05-11T05:47:05.151Z,90.80
2019-05-11T05:48:09.601Z,90.70
2019-05-11T05:49:14.002Z,90.60
2019-05-11T05:50:18.424Z,90.40
2019-05-11T05:51:22.815Z,90.30
2019-05-11T05:52:27.450Z,90.60
2019-05-11T05:53:31.844Z,90.20
2019-05-11T05:54:36.258Z,90.20
2019-05-11T05:55:40.892Z,90.30
2019-05-11T05:56:45.292Z,90.30
2019-05-11T05:57:49.696Z,90.30
2019-05-11T05:58:54.137Z,90.30
2019-05-11T05:59:58.536Z,90.30
2019-05-11T06:01:03.083Z,90.20
2019-05-11T06:02:07.568Z,90.10
2019-05-11T06:03:11.967Z,90.30
2019-05-11T06:04:16.414Z,90.30
2019-05-11T06:05:20.794Z,90.30
2019-05-11T06:06:25.204Z,90.30
2019-05-11T06:07:29.599Z,90.30
2019-05-11T06:08:34.001Z,90.10
2019-05-11T06:09:38.563Z,90.20
2019-05-11T06:10:42.972Z,90.10
2019-05-11T06:11:47.631Z,90.00
2019-05-11T06:12:52.150Z,90.00
2019-05-11T06:13:56.549Z,90.10
2019-05-11T06:15:00.993Z,90.00
2019-05-11T06:16:05.386Z,89.80
2019-05-11T06:17:09.913Z,89.50
2019-05-11T06:18:14.315Z,89.40
2019-05-11T06:19:18.756Z,89.30
2019-05-11T06:20:23.163Z,89.10
2019-05-11T06:21:27.563Z,89.00
2019-05-11T06:22:31.984Z,88.80
2019-05-11T06:23:36.583Z,88.50
2019-05-11T06:24:40.931Z,88.90
2019-05-11T06:25:45.327Z,88.10
2019-05-11T06:26:49.758Z,87.60
2019-05-11T06:27:54.202Z,86.90
2019-05-11T06:28:58.547Z,86.40
2019-05-11T06:30:02.990Z,86.40
2019-05-11T06:31:07.409Z,85.60
2019-05-11T06:32:11.831Z,85.60
2019-05-11T06:33:16.226Z,85.20
2019-05-11T06:34:20.695Z,85.10
2019-05-11T06:35:25.134Z,84.60
2019-05-11T06:36:29.531Z,84.20
2019-05-11T06:37:33.978Z,84.50
2019-05-11T06:38:38.375Z,84.60
2019-05-11T06:39:42.813Z,84.80
2019-05-11T06:40:47.202Z,84.30
2019-05-11T06:41:51.603Z,84.20
2019-05-11T06:42:56.001Z,84.50
2019-05-11T06:44:02.227Z,84.40
2019-05-11T06:45:06.504Z,84.70
2019-05-11T06:46:11.869Z,85.20
2019-05-11T06:47:16.271Z,84.90
2019-05-11T06:48:20.679Z,84.60
2019-05-11T06:49:25.185Z,84.10
2019-05-11T06:50:29.619Z,84.40
2019-05-11T06:51:34.028Z,85.00
2019-05-11T06:52:38.424Z,84.40
2019-05-11T06:53:42.816Z,84.60
2019-05-11T06:54:47.351Z,85.10
2019-05-11T06:55:51.758Z,84.40
2019-05-11T06:56:56.160Z,85.10
2019-05-11T06:58:00.560Z,84.50
2019-05-11T06:59:04.973Z,84.40
2019-05-11T07:00:09.436Z,84.20
2019-05-11T07:01:13.831Z,83.80
2019-05-11T07:02:18.236Z,83.80
2019-05-11T07:03:22.640Z,83.70
2019-05-11T07:04:27.054Z,82.60
2019-05-11T07:05:31.494Z,83.00
2019-05-11T07:06:35.926Z,82.70
2019-05-11T07:07:47.397Z,82.20
2019-05-11T07:08:46.381Z,81.80
2019-05-11T07:09:50.783Z,81.10
2019-05-11T07:10:55.212Z,81.20
2019-05-11T07:11:59.852Z,81.40
2019-05-11T07:13:04.352Z,79.60
2019-05-11T07:14:19.790Z,80.50
2019-05-11T07:15:14.833Z,79.60
2019-05-11T07:16:19.248Z,78.70
2019-05-11T07:17:23.636Z,78.90
2019-05-11T07:18:28.063Z,79.00
2019-05-11T07:19:32.458Z,78.90
2019-05-11T07:20:49.398Z,77.80
2019-05-11T07:21:42.948Z,77.10
2019-05-11T07:22:47.355Z,76.70
2019-05-11T07:23:51.747Z,77.00
2019-05-11T07:24:56.152Z,76.00
2019-05-11T07:26:00.583Z,75.90
2019-05-11T07:27:04.987Z,76.80
2019-05-11T07:28:09.387Z,75.60
2019-05-11T07:29:13.818Z,76.20
2019-05-11T07:30:18.203Z,75.60
2019-05-11T07:31:22.662Z,75.30
2019-05-11T07:32:29.174Z,75.20
2019-05-11T07:33:33.087Z,75.80
2019-05-11T07:34:38.336Z,74.30
2019-05-11T07:35:42.931Z,74.40
2019-05-11T07:36:47.731Z,74.80
2019-05-11T07:37:52.231Z,74.80
2019-05-11T07:38:57.976Z,74.90
2019-05-11T07:40:02.572Z,75.50
2019-05-11T07:41:08.765Z,74.50
2019-05-11T07:42:13.056Z,73.70
2019-05-11T07:43:18.785Z,74.20
2019-05-11T07:44:35.775Z,73.20
2019-05-11T07:45:29.537Z,72.50
2019-05-11T07:46:34.043Z,72.20
2019-05-11T07:47:38.435Z,71.60
2019-05-11T07:48:42.840Z,71.30
2019-05-11T07:49:48.870Z,70.90
2019-05-11T07:50:53.471Z,70.00
2019-05-11T07:51:58.670Z,70.60
2019-05-11T07:53:03.279Z,69.70
2019-05-11T07:54:08.436Z,69.80
2019-05-11T07:55:13.098Z,69.90
2019-05-11T07:56:18.763Z,69.00
2019-05-11T07:57:23.351Z,69.90
2019-05-11T07:58:28.475Z,68.90
2019-05-11T07:59:33.114Z,69.50
2019-05-11T08:00:39.958Z,69.80
2019-05-11T08:01:43.596Z,68.80
2019-05-11T08:02:48.186Z,67.90
2019-05-11T08:03:52.712Z,67.50
2019-05-11T08:04:58.678Z,66.00
2019-05-11T08:06:08.676Z,64.80
2019-05-11T08:07:12.414Z,65.90
2019-05-11T08:08:18.126Z,65.90
2019-05-11T08:09:22.620Z,65.90
2019-05-11T08:10:28.125Z,66.00
2019-05-11T08:11:32.751Z,64.80
2019-05-11T08:12:39.142Z,65.10
2019-05-11T08:13:43.236Z,64.50
2019-05-11T08:14:59.050Z,65.30
2019-05-11T08:15:53.698Z,64.60
2019-05-11T08:16:59.349Z,64.80
2019-05-11T08:18:04.260Z,63.50
2019-05-11T08:19:10.705Z,64.10
2019-05-11T08:20:14.800Z,64.70
2019-05-11T08:21:19.270Z,63.90
2019-05-11T08:22:23.711Z,63.60
2019-05-11T08:23:28.662Z,62.80
2019-05-11T08:24:33.134Z,63.30
2019-05-11T08:25:37.999Z,62.60
2019-05-11T08:26:42.453Z,61.50
2019-05-11T08:27:48.489Z,62.00
2019-05-11T08:28:53.102Z,62.70
2019-05-11T08:29:58.056Z,62.00
2019-05-11T08:31:02.643Z,62.50
2019-05-11T08:32:08.244Z,61.20
2019-05-11T08:33:12.668Z,62.00
2019-05-11T08:34:18.043Z,60.80
2019-05-11T08:35:22.543Z,61.20
2019-05-11T08:36:28.850Z,61.30
2019-05-11T08:37:33.113Z,61.10
2019-05-11T08:38:37.939Z,62.10
2019-05-11T08:39:42.406Z,61.90
2019-05-11T08:40:48.475Z,61.20
2019-05-11T08:41:52.874Z,60.60
2019-05-11T08:42:58.278Z,60.10
2019-05-11T08:44:02.835Z,60.30
2019-05-11T08:45:19.484Z,60.30
2019-05-11T08:46:13.294Z,60.00
2019-05-11T08:47:17.900Z,60.00
2019-05-11T08:48:22.327Z,59.80
2019-05-11T08:49:28.623Z,59.30
2019-05-11T08:50:32.771Z,59.70
2019-05-11T08:51:38.646Z,59.60
2019-05-11T08:52:43.307Z,59.50
2019-05-11T08:53:48.179Z,60.00
2019-05-11T08:54:52.622Z,59.90
2019-05-11T08:55:58.843Z,59.90
2019-05-11T08:57:03.087Z,60.10
2019-05-11T08:58:08.005Z,60.50
2019-05-11T08:59:12.427Z,61.00
2019-05-11T09:00:17.926Z,61.00
2019-05-11T09:01:22.539Z,61.40
2019-05-11T09:02:27.841Z,61.30
2019-05-11T09:03:32.407Z,62.40
2019-05-11T09:04:41.715Z,62.00
2019-05-11T09:05:42.920Z,61.70
2019-05-11T09:06:47.940Z,62.00
2019-05-11T09:07:52.596Z,61.60
2019-05-11T09:08:58.347Z,62.00
2019-05-11T09:10:02.923Z,62.40
2019-05-11T09:11:08.438Z,62.30
2019-05-11T09:12:12.902Z,62.70
2019-05-11T09:13:18.567Z,62.90
2019-05-11T09:14:23.067Z,62.60
2019-05-11T09:15:36.455Z,63.70
2019-05-11T09:16:33.643Z,64.30
2019-05-11T09:17:38.322Z,64.70
2019-05-11T09:18:42.898Z,66.20
2019-05-11T09:19:48.048Z,64.30
2019-05-11T09:20:52.625Z,63.50
2019-05-11T09:21:58.765Z,64.70
2019-05-11T09:23:03.107Z,63.00
2019-05-11T09:24:08.390Z,62.90
2019-05-11T09:25:13.307Z,63.00
2019-05-11T09:26:18.353Z,61.50
2019-05-11T09:27:22.899Z,61.10
2019-05-11T09:28:29.454Z,61.30
2019-05-11T09:29:33.391Z,61.20
2019-05-11T09:30:37.931Z,60.80
2019-05-11T09:31:42.535Z,61.00
2019-05-11T09:32:47.759Z,59.70
2019-05-11T09:33:52.363Z,59.80
2019-05-11T09:34:57.960Z,60.20
2019-05-11T09:36:02.509Z,58.60
2019-05-11T09:37:07.925Z,58.80
2019-05-11T09:38:12.624Z,59.10
2019-05-11T09:39:17.749Z,59.10
2019-05-11T09:40:22.273Z,57.90
2019-05-11T09:41:28.779Z,58.60
2019-05-11T09:42:32.722Z,58.80
2019-05-11T09:43:37.726Z,58.90
2019-05-11T09:44:42.618Z,58.50
2019-05-11T09:45:49.347Z,57.60
2019-05-11T09:46:53.058Z,56.90
2019-05-11T09:47:58.264Z,57.00
2019-05-11T09:49:02.915Z,56.00
2019-05-11T09:50:08.568Z,56.30
2019-05-11T09:51:13.247Z,55.20
2019-05-11T09:52:18.353Z,56.10
2019-05-11T09:53:22.972Z,56.00
2019-05-11T09:54:28.902Z,57.00
2019-05-11T09:55:33.622Z,56.60
2019-05-11T09:56:38.337Z,56.60
2019-05-11T09:57:42.829Z,56.60
2019-05-11T09:58:48.173Z,57.30
2019-05-11T09:59:52.715Z,57.60
2019-05-11T10:00:59.848Z,58.10
2019-05-11T10:02:04.328Z,58.40
2019-05-11T10:03:08.791Z,58.20
2019-05-11T10:04:13.214Z,58.00
2019-05-11T10:05:18.779Z,59.10
2019-05-11T10:06:23.552Z,59.10
2019-05-11T10:07:28.599Z,58.50
2019-05-11T10:08:34.018Z,58.40
2019-05-11T10:09:38.496Z,58.50
2019-05-11T10:10:42.923Z,58.00
2019-05-11T10:11:48.016Z,57.80
2019-05-11T10:12:53.016Z,57.70
2019-05-11T10:13:57.910Z,57.40
2019-05-11T10:15:02.443Z,57.70
2019-05-11T10:16:10.174Z,57.20
2019-05-11T10:17:12.907Z,57.10
2019-05-11T10:18:18.638Z,57.00
2019-05-11T10:19:23.316Z,57.20
2019-05-11T10:20:28.658Z,57.30
2019-05-11T10:21:33.250Z,57.20
2019-05-11T10:22:38.481Z,57.60
2019-05-11T10:23:43.082Z,57.40
2019-05-11T10:24:47.775Z,57.20
2019-05-11T10:25:52.247Z,57.00
2019-05-11T10:26:57.833Z,58.10
2019-05-11T10:28:02.373Z,56.90
2019-05-11T10:29:07.878Z,57.20
2019-05-11T10:30:12.606Z,55.90
2019-05-11T10:31:18.033Z,54.60
2019-05-11T10:32:22.907Z,54.20
2019-05-11T10:33:28.139Z,53.10
2019-05-11T10:34:32.747Z,53.30
2019-05-11T10:35:37.835Z,52.90
2019-05-11T10:36:42.459Z,52.30
2019-05-11T10:37:47.792Z,52.40
2019-05-11T10:38:52.367Z,52.00
2019-05-11T10:39:57.767Z,52.30
2019-05-11T10:41:02.436Z,52.70
2019-05-11T10:42:08.628Z,52.70
2019-05-11T10:43:12.931Z,52.70
2019-05-11T10:44:18.745Z,53.10
2019-05-11T10:45:23.374Z,53.30
2019-05-11T10:46:28.699Z,53.40
2019-05-11T10:47:33.176Z,53.20
2019-05-11T10:48:38.927Z,53.50
2019-05-11T10:49:43.490Z,54.30
2019-05-11T10:50:48.505Z,54.60
2019-05-11T10:51:52.946Z,54.70
2019-05-11T10:52:59.062Z,54.70
2019-05-11T10:54:03.420Z,54.70
2019-05-11T10:55:08.850Z,53.90
2019-05-11T10:56:13.480Z,54.10
2019-05-11T10:57:18.900Z,54.50
2019-05-11T10:58:23.492Z,54.20
2019-05-11T10:59:28.437Z,54.50
2019-05-11T11:00:32.911Z,54.50
2019-05-11T11:01:38.096Z,54.60
2019-05-11T11:02:42.611Z,55.10
2019-05-11T11:03:48.306Z,54.80
2019-05-11T11:04:53.030Z,55.20
2019-05-11T11:05:58.067Z,55.20
2019-05-11T11:07:02.762Z,55.50
2019-05-11T11:08:08.358Z,55.40
2019-05-11T11:09:12.888Z,56.00
2019-05-11T11:10:18.163Z,56.10
2019-05-11T11:11:22.835Z,56.70
2019-05-11T11:12:27.878Z,57.50
2019-05-11T11:13:32.447Z,57.80
2019-05-11T11:14:37.735Z,58.10
2019-05-11T11:15:42.738Z,57.90
2019-05-11T11:16:47.868Z,58.10
2019-05-11T11:17:52.435Z,57.80
2019-05-11T11:18:58.810Z,57.50
2019-05-11T11:20:03.476Z,57.80
2019-05-11T11:21:08.657Z,58.00
2019-05-11T11:22:35.385Z,57.80
2019-05-11T11:23:19.407Z,58.30
2019-05-11T11:24:23.800Z,58.20
2019-05-11T11:25:28.572Z,58.10
2019-05-11T11:26:33.091Z,57.80
2019-05-11T11:27:38.146Z,57.70
2019-05-11T11:28:42.936Z,58.40
2019-05-11T11:29:47.664Z,58.60
2019-05-11T11:30:52.179Z,58.50
2019-05-11T11:31:58.549Z,59.30
2019-05-11T11:33:02.664Z,59.40
2019-05-11T11:34:08.292Z,60.00
2019-05-11T11:35:12.728Z,59.90
2019-05-11T11:36:17.970Z,59.70
2019-05-11T11:37:22.893Z,59.40
2019-05-11T11:38:28.563Z,59.20
2019-05-11T11:39:33.239Z,58.40
2019-05-11T11:40:38.668Z,58.00
2019-05-11T11:41:43.351Z,58.10
2019-05-11T11:42:47.976Z,57.70
2019-05-11T11:43:52.372Z,57.80
2019-05-11T11:44:58.742Z,57.40
2019-05-11T11:46:02.880Z,57.50
2019-05-11T11:47:08.705Z,57.40
2019-05-11T11:48:13.212Z,56.80
2019-05-11T11:49:18.835Z,56.30
2019-05-11T11:50:23.506Z,56.40
2019-05-11T11:51:28.634Z,56.60
2019-05-11T11:52:33.171Z,56.40
2019-05-11T11:53:38.375Z,56.10
2019-05-11T11:54:42.878Z,56.10
2019-05-11T11:55:48.160Z,55.50
2019-05-11T11:56:52.842Z,55.50
2019-05-11T11:57:58.853Z,55.00
2019-05-11T11:59:03.460Z,54.10
2019-05-11T12:00:09.138Z,54.10
2019-05-11T12:01:13.718Z,53.60
2019-05-11T12:02:19.067Z,53.40
2019-05-11T12:03:23.706Z,53.00
2019-05-11T12:04:28.458Z,53.00
2019-05-11T12:05:33.006Z,53.20
2019-05-11T12:06:38.661Z,53.20
2019-05-11T12:07:43.070Z,53.10
2019-05-11T12:08:49.629Z,53.30
2019-05-11T12:09:53.563Z,54.20
2019-05-11T12:10:58.911Z,54.20
2019-05-11T12:12:03.494Z,53.80
2019-05-11T12:13:08.586Z,54.10
2019-05-11T12:14:13.224Z,55.10
2019-05-11T12:15:17.893Z,55.30
2019-05-11T12:16:22.446Z,54.70
2019-05-11T12:17:28.581Z,54.10
2019-05-11T12:18:32.956Z,54.10
2019-05-11T12:19:38.247Z,55.00
2019-05-11T12:20:42.980Z,54.90
2019-05-11T12:21:48.345Z,55.60
2019-05-11T12:22:53.016Z,55.60
2019-05-11T12:23:58.521Z,55.70
2019-05-11T12:25:03.040Z,54.30
2019-05-11T12:26:08.465Z,55.00
2019-05-11T12:27:13.118Z,54.80
2019-05-11T12:28:18.432Z,54.10
2019-05-11T12:29:23.439Z,53.40
2019-05-11T12:30:28.538Z,53.10
2019-05-11T12:31:33.143Z,53.10
2019-05-11T12:32:44.479Z,52.70
2019-05-11T12:33:48.878Z,52.90
2019-05-11T12:34:53.270Z,53.10
2019-05-11T12:35:58.660Z,53.50
2019-05-11T12:37:03.510Z,53.40
2019-05-11T12:38:07.962Z,53.10
2019-05-11T12:39:12.319Z,52.60
2019-05-11T12:40:18.315Z,53.50
2019-05-11T12:41:22.838Z,52.60
2019-05-11T12:42:28.372Z,52.90
2019-05-11T12:43:33.351Z,52.90
2019-05-11T12:44:38.714Z,53.00
2019-05-11T12:45:43.231Z,53.60
2019-05-11T12:46:48.851Z,53.50
2019-05-11T12:47:53.642Z,53.80
2019-05-11T12:48:59.208Z,54.20
2019-05-11T12:50:03.890Z,54.10
2019-05-11T12:51:08.310Z,54.30
2019-05-11T12:52:12.682Z,53.50
2019-05-11T12:53:18.600Z,53.00
2019-05-11T12:54:23.146Z,53.00
2019-05-11T12:55:28.619Z,53.80
2019-05-11T12:56:33.318Z,54.60
2019-05-11T12:57:38.579Z,55.10
2019-05-11T12:58:43.414Z,55.10
2019-05-11T12:59:48.742Z,53.90
2019-05-11T13:00:53.271Z,53.20
2019-05-11T13:01:59.031Z,53.60
2019-05-11T13:03:03.797Z,53.40
2019-05-11T13:04:08.919Z,52.80
2019-05-11T13:05:13.726Z,53.20
2019-05-11T13:06:19.080Z,52.70
2019-05-11T13:07:23.692Z,53.00
2019-05-11T13:08:28.136Z,53.00
2019-05-11T13:09:32.543Z,53.00
2019-05-11T13:10:37.581Z,52.20
2019-05-11T13:11:42.167Z,51.80
2019-05-11T13:12:48.982Z,51.90
2019-05-11T13:13:52.686Z,52.50
2019-05-11T13:14:58.060Z,53.30
2019-05-11T13:16:02.621Z,53.90
2019-05-11T13:17:07.865Z,53.30
2019-05-11T13:18:12.350Z,53.60
2019-05-11T13:19:17.600Z,53.90
2019-05-11T13:20:22.211Z,53.60
2019-05-11T13:21:28.542Z,54.10
2019-05-11T13:22:32.948Z,54.30
2019-05-11T13:23:38.297Z,54.70
2019-05-11T13:24:42.851Z,54.20
2019-05-11T13:25:48.054Z,54.00
2019-05-11T13:26:52.601Z,53.60
2019-05-11T13:27:58.134Z,53.80
2019-05-11T13:29:02.735Z,53.50
2019-05-11T13:30:08.071Z,54.00
2019-05-11T13:31:12.731Z,54.10
2019-05-11T13:32:18.643Z,53.90
2019-05-11T13:33:23.311Z,53.80
2019-05-11T13:34:31.148Z,53.90
2019-05-11T13:35:33.811Z,53.60
2019-05-11T13:36:38.413Z,52.90
2019-05-11T13:37:42.909Z,53.00
2019-05-11T13:38:48.258Z,53.20
2019-05-11T13:39:53.038Z,53.40
2019-05-11T13:40:59.057Z,54.30
2019-05-11T13:42:03.648Z,53.30
2019-05-11T13:43:08.389Z,52.80
2019-05-11T13:44:13.051Z,51.90
2019-05-11T13:45:17.814Z,52.00
2019-05-11T13:46:22.255Z,53.30
2019-05-11T13:47:28.305Z,53.20
2019-05-11T13:48:33.111Z,53.40
2019-05-11T13:49:37.880Z,53.40
2019-05-11T13:50:42.344Z,53.20
2019-05-11T13:51:48.057Z,53.90
2019-05-11T13:52:52.683Z,52.10
2019-05-11T13:53:58.506Z,52.00